sensor_id;sensor_type;location;lat;lon;timestamp;pressure;altitude;pressure_sealevel;temperature;humidity
57056;BME280;42945;51.718;5.324;2022-09-30T00:01:32;100612.84;;;4.60;100.00
57056;BME280;42945;51.718;5.324;2022-09-30T00:03:57;100550.91;;;4.54;100.00
57056;BME280;42945;51.718;5.324;2022-09-30T00:06:26;100468.34;;;3.90;100.00
57056;BME280;42945;51.718;5.324;2022-09-30T00:08:53;100590.66;;;4.43;100.00
57056;BME280;42945;51.718;5.324;2022-09-30T00:11:20;100530.56;;;3.87;100.00
57056;BME280;42945;51.718;5.324;2022-09-30T00:13:46;100603.94;;;4.40;100.00
57056;BME280;42945;51.718;5.324;2022-09-30T00:16:12;100605.31;;;4.50;100.00
57056;BME280;42945;51.718;5.324;2022-09-30T00:18:39;100635.84;;;4.53;100.00
57056;BME280;42945;51.718;5.324;2022-09-30T00:21:04;100586.63;;;4.58;100.00
57056;BME280;42945;51.718;5.324;2022-09-30T00:23:30;100611.41;;;4.51;100.00
57056;BME280;42945;51.718;5.324;2022-09-30T00:26:02;100573.13;;;4.44;100.00
57056;BME280;42945;51.718;5.324;2022-09-30T00:28:29;100593.09;;;4.24;100.00
57056;BME280;42945;51.718;5.324;2022-09-30T00:31:01;100617.06;;;4.40;100.00
57056;BME280;42945;51.718;5.324;2022-09-30T00:33:27;100589.28;;;4.33;100.00
57056;BME280;42945;51.718;5.324;2022-09-30T00:35:52;100629.69;;;4.29;100.00
57056;BME280;42945;51.718;5.324;2022-09-30T00:38:18;100612.13;;;4.31;100.00
57056;BME280;42945;51.718;5.324;2022-09-30T00:40:43;100515.50;;;3.67;100.00
57056;BME280;42945;51.718;5.324;2022-09-30T00:43:13;100552.06;;;4.22;100.00
57056;BME280;42945;51.718;5.324;2022-09-30T00:45:39;100567.81;;;4.22;100.00
57056;BME280;42945;51.718;5.324;2022-09-30T00:48:10;100575.59;;;4.25;100.00
57056;BME280;42945;51.718;5.324;2022-09-30T00:50:44;100483.50;;;3.57;100.00
57056;BME280;42945;51.718;5.324;2022-09-30T00:53:27;100633.41;;;4.23;100.00
57056;BME280;42945;51.718;5.324;2022-09-30T00:58:37;100587.13;;;4.21;100.00
57056;BME280;42945;51.718;5.324;2022-09-30T01:01:03;100571.16;;;4.02;100.00
57056;BME280;42945;51.718;5.324;2022-09-30T01:03:29;100621.91;;;4.26;100.00
57056;BME280;42945;51.718;5.324;2022-09-30T01:05:55;100600.34;;;4.18;100.00
57056;BME280;42945;51.718;5.324;2022-09-30T01:08:21;100588.38;;;4.09;100.00
57056;BME280;42945;51.718;5.324;2022-09-30T01:10:47;100551.72;;;4.07;100.00
57056;BME280;42945;51.718;5.324;2022-09-30T01:13:13;100656.94;;;4.00;100.00
57056;BME280;42945;51.718;5.324;2022-09-30T01:18:09;100613.81;;;4.07;100.00
57056;BME280;42945;51.718;5.324;2022-09-30T01:20:47;100591.09;;;4.07;100.00
57056;BME280;42945;51.718;5.324;2022-09-30T01:23:29;100598.16;;;4.05;100.00
57056;BME280;42945;51.718;5.324;2022-09-30T01:31:30;100757.63;;;4.50;100.00
57056;BME280;42945;51.718;5.324;2022-09-30T01:36:34;100566.38;;;3.88;100.00
57056;BME280;42945;51.718;5.324;2022-09-30T01:44:32;100554.75;;;3.95;100.00
57056;BME280;42945;51.718;5.324;2022-09-30T01:49:41;100583.34;;;4.03;100.00
57056;BME280;42945;51.718;5.324;2022-09-30T01:52:11;100474.16;;;3.23;100.00
57056;BME280;42945;51.718;5.324;2022-09-30T01:54:41;100599.47;;;3.92;100.00
57056;BME280;42945;51.718;5.324;2022-09-30T01:57:10;100595.84;;;3.96;100.00
57056;BME280;42945;51.718;5.324;2022-09-30T01:59:44;100592.75;;;3.83;100.00
57056;BME280;42945;51.718;5.324;2022-09-30T02:02:45;100663.34;;;3.91;100.00
57056;BME280;42945;51.718;5.324;2022-09-30T02:05:06;100594.44;;;3.86;100.00
57056;BME280;42945;51.718;5.324;2022-09-30T02:10:06;100571.16;;;4.02;100.00
57056;BME280;42945;51.718;5.324;2022-09-30T02:12:34;100610.78;;;3.94;100.00
57056;BME280;42945;51.718;5.324;2022-09-30T02:15:07;100514.78;;;3.37;100.00
57056;BME280;42945;51.718;5.324;2022-09-30T02:19:59;100628.00;;;4.01;100.00
57056;BME280;42945;51.718;5.324;2022-09-30T02:22:30;100567.13;;;3.91;100.00
57056;BME280;42945;51.718;5.324;2022-09-30T02:24:59;100619.19;;;3.77;100.00
57056;BME280;42945;51.718;5.324;2022-09-30T02:27:45;100594.28;;;3.90;100.00
57056;BME280;42945;51.718;5.324;2022-09-30T02:30:12;100579.81;;;3.79;100.00
57056;BME280;42945;51.718;5.324;2022-09-30T02:32:43;100545.72;;;3.79;100.00
57056;BME280;42945;51.718;5.324;2022-09-30T02:35:19;100453.38;;;3.17;100.00
57056;BME280;42945;51.718;5.324;2022-09-30T02:37:51;100601.00;;;3.72;100.00
57056;BME280;42945;51.718;5.324;2022-09-30T02:40:21;100595.94;;;3.66;100.00
57056;BME280;42945;51.718;5.324;2022-09-30T02:42:47;100608.06;;;3.70;100.00
57056;BME280;42945;51.718;5.324;2022-09-30T02:45:14;100606.00;;;3.80;100.00
57056;BME280;42945;51.718;5.324;2022-09-30T02:50:27;100487.34;;;2.93;100.00
57056;BME280;42945;51.718;5.324;2022-09-30T02:56:05;100674.72;;;3.63;100.00
57056;BME280;42945;51.718;5.324;2022-09-30T02:58:33;100586.00;;;3.76;100.00
57056;BME280;42945;51.718;5.324;2022-09-30T03:01:04;100566.50;;;3.58;100.00
57056;BME280;42945;51.718;5.324;2022-09-30T03:03:32;100639.63;;;3.67;100.00
57056;BME280;42945;51.718;5.324;2022-09-30T03:05:59;100614.88;;;3.49;100.00
57056;BME280;42945;51.718;5.324;2022-09-30T03:08:25;100622.78;;;3.48;100.00
57056;BME280;42945;51.718;5.324;2022-09-30T03:10:50;100559.25;;;3.40;100.00
57056;BME280;42945;51.718;5.324;2022-09-30T03:26:16;100643.91;;;3.43;100.00
57056;BME280;42945;51.718;5.324;2022-09-30T03:37:09;100492.06;;;2.82;100.00
57056;BME280;42945;51.718;5.324;2022-09-30T03:42:09;100560.34;;;2.76;100.00
57056;BME280;42945;51.718;5.324;2022-09-30T03:44:38;100612.56;;;3.39;100.00
57056;BME280;42945;51.718;5.324;2022-09-30T03:47:06;100658.56;;;3.49;100.00
57056;BME280;42945;51.718;5.324;2022-09-30T03:49:34;100310.53;;;3.30;100.00
57056;BME280;42945;51.718;5.324;2022-09-30T03:52:05;100582.91;;;2.80;100.00
57056;BME280;42945;51.718;5.324;2022-09-30T03:54:31;100539.19;;;2.82;100.00
57056;BME280;42945;51.718;5.324;2022-09-30T03:56:57;100639.53;;;3.42;100.00
57056;BME280;42945;51.718;5.324;2022-09-30T03:59:23;100432.41;;;2.06;100.00
57056;BME280;42945;51.718;5.324;2022-09-30T04:01:50;132227.66;;;191.27;100.00
57056;BME280;42945;51.718;5.324;2022-09-30T04:04:15;100137.59;;;2.09;100.00
57056;BME280;42945;51.718;5.324;2022-09-30T04:06:40;100655.94;;;3.49;100.00
57056;BME280;42945;51.718;5.324;2022-09-30T04:09:06;100659.91;;;3.34;100.00
57056;BME280;42945;51.718;5.324;2022-09-30T04:11:31;100685.75;;;3.17;100.00
57056;BME280;42945;51.718;5.324;2022-09-30T04:13:56;100695.31;;;3.18;100.00
57056;BME280;42945;51.718;5.324;2022-09-30T04:16:21;100582.50;;;2.64;100.00
57056;BME280;42945;51.718;5.324;2022-09-30T04:18:47;100722.09;;;3.29;100.00
57056;BME280;42945;51.718;5.324;2022-09-30T04:21:12;100564.34;;;2.88;100.00
57056;BME280;42945;51.718;5.324;2022-09-30T04:23:38;100691.22;;;3.39;100.00
57056;BME280;42945;51.718;5.324;2022-09-30T04:26:05;100378.25;;;3.43;100.00
57056;BME280;42945;51.718;5.324;2022-09-30T04:28:30;100681.81;;;3.31;100.00
57056;BME280;42945;51.718;5.324;2022-09-30T04:31:03;100677.63;;;3.26;100.00
57056;BME280;42945;51.718;5.324;2022-09-30T04:33:28;100684.13;;;3.42;100.00
57056;BME280;42945;51.718;5.324;2022-09-30T04:35:54;100676.28;;;3.41;100.00
57056;BME280;42945;51.718;5.324;2022-09-30T04:38:20;100576.31;;;2.67;100.00
57056;BME280;42945;51.718;5.324;2022-09-30T04:40:45;100657.84;;;3.44;100.00
57056;BME280;42945;51.718;5.324;2022-09-30T04:43:10;100752.06;;;3.50;100.00
57056;BME280;42945;51.718;5.324;2022-09-30T04:45:35;100745.38;;;3.40;100.00
57056;BME280;42945;51.718;5.324;2022-09-30T04:48:01;100500.91;;;2.19;100.00
57056;BME280;42945;51.718;5.324;2022-09-30T04:50:26;100727.44;;;3.54;100.00
57056;BME280;42945;51.718;5.324;2022-09-30T04:52:51;100695.91;;;3.57;100.00
57056;BME280;42945;51.718;5.324;2022-09-30T04:55:17;100672.19;;;3.60;100.00
57056;BME280;42945;51.718;5.324;2022-09-30T04:57:43;100727.38;;;3.57;100.00
57056;BME280;42945;51.718;5.324;2022-09-30T05:00:09;100615.75;;;2.92;100.00
57056;BME280;42945;51.718;5.324;2022-09-30T05:02:35;100658.50;;;3.50;100.00
57056;BME280;42945;51.718;5.324;2022-09-30T05:05:00;100697.31;;;3.67;100.00
57056;BME280;42945;51.718;5.324;2022-09-30T05:07:27;100690.44;;;3.65;100.00
57056;BME280;42945;51.718;5.324;2022-09-30T05:09:52;100710.53;;;3.64;100.00
57056;BME280;42945;51.718;5.324;2022-09-30T05:12:17;100723.56;;;3.67;100.00
57056;BME280;42945;51.718;5.324;2022-09-30T05:14:43;100590.88;;;3.05;100.00
57056;BME280;42945;51.718;5.324;2022-09-30T05:17:08;100754.06;;;3.70;100.00
57056;BME280;42945;51.718;5.324;2022-09-30T05:19:33;100631.03;;;3.62;100.00
57056;BME280;42945;51.718;5.324;2022-09-30T05:21:58;100706.28;;;3.60;100.00
57056;BME280;42945;51.718;5.324;2022-09-30T05:24:23;100725.97;;;3.73;100.00
57056;BME280;42945;51.718;5.324;2022-09-30T05:26:49;100677.63;;;3.54;100.00
57056;BME280;42945;51.718;5.324;2022-09-30T05:29:14;100716.31;;;3.47;100.00
57056;BME280;42945;51.718;5.324;2022-09-30T05:31:40;100751.31;;;3.45;100.00
57056;BME280;42945;51.718;5.324;2022-09-30T05:34:06;100767.38;;;3.34;100.00
57056;BME280;42945;51.718;5.324;2022-09-30T05:36:32;132384.91;;;191.27;100.00
57056;BME280;42945;51.718;5.324;2022-09-30T05:38:57;100696.34;;;3.43;100.00
57056;BME280;42945;51.718;5.324;2022-09-30T05:41:23;100753.94;;;3.45;100.00
57056;BME280;42945;51.718;5.324;2022-09-30T05:43:48;100723.13;;;3.23;100.00
57056;BME280;42945;51.718;5.324;2022-09-30T05:46:14;100591.03;;;2.71;100.00
57056;BME280;42945;51.718;5.324;2022-09-30T05:48:40;100776.59;;;3.47;100.00
57056;BME280;42945;51.718;5.324;2022-09-30T05:51:05;100789.28;;;3.31;100.00
57056;BME280;42945;51.718;5.324;2022-09-30T05:53:31;100731.81;;;3.24;100.00
57056;BME280;42945;51.718;5.324;2022-09-30T05:55:57;100763.38;;;3.21;100.00
57056;BME280;42945;51.718;5.324;2022-09-30T05:58:22;100636.97;;;2.51;100.00
57056;BME280;42945;51.718;5.324;2022-09-30T06:00:48;100773.69;;;3.27;100.00
57056;BME280;42945;51.718;5.324;2022-09-30T06:03:14;100757.06;;;3.28;100.00
57056;BME280;42945;51.718;5.324;2022-09-30T06:05:40;100810.53;;;3.22;100.00
57056;BME280;42945;51.718;5.324;2022-09-30T06:08:08;100773.72;;;3.25;100.00
57056;BME280;42945;51.718;5.324;2022-09-30T06:10:34;100559.88;;;1.99;100.00
57056;BME280;42945;51.718;5.324;2022-09-30T06:13:01;100809.81;;;3.47;100.00
57056;BME280;42945;51.718;5.324;2022-09-30T06:15:29;100803.09;;;3.38;100.00
57056;BME280;42945;51.718;5.324;2022-09-30T06:17:55;100791.53;;;3.45;100.00
57056;BME280;42945;51.718;5.324;2022-09-30T06:20:20;100665.59;;;2.89;100.00
57056;BME280;42945;51.718;5.324;2022-09-30T06:22:46;100773.34;;;3.69;100.00
57056;BME280;42945;51.718;5.324;2022-09-30T06:25:11;100785.19;;;3.82;100.00
57056;BME280;42945;51.718;5.324;2022-09-30T06:27:37;100822.03;;;3.78;100.00
57056;BME280;42945;51.718;5.324;2022-09-30T06:30:03;100786.94;;;3.82;100.00
57056;BME280;42945;51.718;5.324;2022-09-30T06:32:29;100654.56;;;3.37;100.00
57056;BME280;42945;51.718;5.324;2022-09-30T06:34:54;100815.44;;;3.94;100.00
57056;BME280;42945;51.718;5.324;2022-09-30T06:37:21;100687.31;;;3.52;100.00
57056;BME280;42945;51.718;5.324;2022-09-30T06:39:46;100806.78;;;4.19;100.00
57056;BME280;42945;51.718;5.324;2022-09-30T06:42:12;100779.69;;;4.18;0.00
57056;BME280;42945;51.718;5.324;2022-09-30T06:44:37;100752.38;;;4.24;100.00
57056;BME280;42945;51.718;5.324;2022-09-30T06:47:02;100687.56;;;3.72;100.00
57056;BME280;42945;51.718;5.324;2022-09-30T06:49:28;100667.19;;;3.81;100.00
57056;BME280;42945;51.718;5.324;2022-09-30T06:51:53;100789.31;;;4.71;100.00
57056;BME280;42945;51.718;5.324;2022-09-30T06:54:18;100746.59;;;4.66;100.00
57056;BME280;42945;51.718;5.324;2022-09-30T06:56:47;100779.56;;;4.74;100.00
57056;BME280;42945;51.718;5.324;2022-09-30T06:59:12;100732.00;;;4.82;100.00
57056;BME280;42945;51.718;5.324;2022-09-30T07:01:41;100789.00;;;5.05;100.00
57056;BME280;42945;51.718;5.324;2022-09-30T07:04:08;100805.81;;;5.25;100.00
57056;BME280;42945;51.718;5.324;2022-09-30T07:06:34;100782.91;;;5.28;100.00
57056;BME280;42945;51.718;5.324;2022-09-30T07:08:59;100784.19;;;5.42;100.00
57056;BME280;42945;51.718;5.324;2022-09-30T07:11:24;100777.66;;;5.52;100.00
57056;BME280;42945;51.718;5.324;2022-09-30T07:13:49;100805.63;;;5.55;100.00
57056;BME280;42945;51.718;5.324;2022-09-30T07:16:15;100806.53;;;5.77;100.00
57056;BME280;42945;51.718;5.324;2022-09-30T07:18:42;100656.13;;;5.20;100.00
57056;BME280;42945;51.718;5.324;2022-09-30T07:21:08;100786.19;;;6.04;100.00
57056;BME280;42945;51.718;5.324;2022-09-30T07:23:33;100666.63;;;5.44;100.00
57056;BME280;42945;51.718;5.324;2022-09-30T07:25:59;100810.50;;;6.33;100.00
57056;BME280;42945;51.718;5.324;2022-09-30T07:28:27;100763.22;;;6.30;100.00
57056;BME280;42945;51.718;5.324;2022-09-30T07:30:55;100697.84;;;5.75;100.00
57056;BME280;42945;51.718;5.324;2022-09-30T07:33:22;100823.47;;;6.60;100.00
57056;BME280;42945;51.718;5.324;2022-09-30T07:35:51;100820.31;;;6.72;100.00
57056;BME280;42945;51.718;5.324;2022-09-30T07:38:18;100784.09;;;6.77;100.00
57056;BME280;42945;51.718;5.324;2022-09-30T07:40:59;100714.22;;;6.26;100.00
57056;BME280;42945;51.718;5.324;2022-09-30T07:43:26;100793.31;;;7.08;100.00
57056;BME280;42945;51.718;5.324;2022-09-30T07:46:01;100765.38;;;7.04;100.00
57056;BME280;42945;51.718;5.324;2022-09-30T07:48:26;100789.41;;;7.17;100.00
57056;BME280;42945;51.718;5.324;2022-09-30T07:51:07;100701.38;;;6.80;100.00
57056;BME280;42945;51.718;5.324;2022-09-30T07:53:33;100797.38;;;7.36;100.00
57056;BME280;42945;51.718;5.324;2022-09-30T07:56:01;100803.59;;;7.73;100.00
57056;BME280;42945;51.718;5.324;2022-09-30T07:58:26;100789.13;;;7.62;100.00
57056;BME280;42945;51.718;5.324;2022-09-30T08:00:51;100777.13;;;7.93;100.00
57056;BME280;42945;51.718;5.324;2022-09-30T08:03:17;100783.56;;;7.87;100.00
57056;BME280;42945;51.718;5.324;2022-09-30T08:05:42;100758.09;;;8.04;100.00
57056;BME280;42945;51.718;5.324;2022-09-30T08:08:12;100798.06;;;8.15;100.00
57056;BME280;42945;51.718;5.324;2022-09-30T08:10:38;100806.34;;;8.26;100.00
57056;BME280;42945;51.718;5.324;2022-09-30T08:13:03;100803.16;;;8.37;100.00
57056;BME280;42945;51.718;5.324;2022-09-30T08:15:28;100783.03;;;8.35;100.00
57056;BME280;42945;51.718;5.324;2022-09-30T08:17:54;100762.88;;;8.51;100.00
57056;BME280;42945;51.718;5.324;2022-09-30T08:20:19;100731.06;;;8.53;100.00
57056;BME280;42945;51.718;5.324;2022-09-30T08:22:44;100683.00;;;8.09;100.00
57056;BME280;42945;51.718;5.324;2022-09-30T08:25:10;100668.00;;;8.27;100.00
57056;BME280;42945;51.718;5.324;2022-09-30T08:27:35;100789.91;;;9.09;100.00
57056;BME280;42945;51.718;5.324;2022-09-30T08:30:00;100815.19;;;9.14;100.00
57056;BME280;42945;51.718;5.324;2022-09-30T08:32:28;100778.44;;;9.25;100.00
57056;BME280;42945;51.718;5.324;2022-09-30T08:34:54;100771.28;;;9.27;100.00
57056;BME280;42945;51.718;5.324;2022-09-30T08:37:19;100793.66;;;9.38;100.00
57056;BME280;42945;51.718;5.324;2022-09-30T08:39:44;100749.19;;;9.44;100.00
57056;BME280;42945;51.718;5.324;2022-09-30T08:44:46;100802.00;;;9.63;100.00
57056;BME280;42945;51.718;5.324;2022-09-30T08:52:25;100689.50;;;9.23;98.37
57056;BME280;42945;51.718;5.324;2022-09-30T08:54:52;100751.75;;;10.10;98.82
57056;BME280;42945;51.718;5.324;2022-09-30T08:57:18;100777.91;;;10.00;96.99
57056;BME280;42945;51.718;5.324;2022-09-30T08:59:45;100680.88;;;9.51;96.53
57056;BME280;42945;51.718;5.324;2022-09-30T09:04:37;100792.03;;;10.32;94.99
57056;BME280;42945;51.718;5.324;2022-09-30T09:19:35;100813.34;;;10.91;93.04
57056;BME280;42945;51.718;5.324;2022-09-30T09:22:01;100641.69;;;10.34;92.30
57056;BME280;42945;51.718;5.324;2022-09-30T09:24:40;100694.56;;;10.52;91.47
57056;BME280;42945;51.718;5.324;2022-09-30T09:27:15;100843.50;;;11.04;90.61
57056;BME280;42945;51.718;5.324;2022-09-30T09:32:18;100688.34;;;10.67;89.77
57056;BME280;42945;51.718;5.324;2022-09-30T09:34:50;100806.47;;;11.32;91.18
57056;BME280;42945;51.718;5.324;2022-09-30T09:39:45;100793.41;;;11.57;89.94
57056;BME280;42945;51.718;5.324;2022-09-30T09:44:53;100663.72;;;10.94;89.62
57056;BME280;42945;51.718;5.324;2022-09-30T09:47:20;100764.25;;;11.85;89.02
57056;BME280;42945;51.718;5.324;2022-09-30T09:49:46;100672.69;;;11.34;88.52
57056;BME280;42945;51.718;5.324;2022-09-30T09:52:21;100769.59;;;12.12;89.12
57056;BME280;42945;51.718;5.324;2022-09-30T09:54:51;100682.25;;;11.37;88.07
57056;BME280;42945;51.718;5.324;2022-09-30T09:57:20;100677.03;;;11.50;87.47
57056;BME280;42945;51.718;5.324;2022-09-30T09:59:56;100657.13;;;11.42;87.16
57056;BME280;42945;51.718;5.324;2022-09-30T10:02:24;100651.34;;;11.63;88.91
57056;BME280;42945;51.718;5.324;2022-09-30T10:04:50;100783.00;;;12.10;87.13
57056;BME280;42945;51.718;5.324;2022-09-30T10:07:24;100798.19;;;12.35;86.25
57056;BME280;42945;51.718;5.324;2022-09-30T10:09:49;100761.09;;;12.47;86.48
57056;BME280;42945;51.718;5.324;2022-09-30T10:12:32;100789.34;;;12.62;86.84
57056;BME280;42945;51.718;5.324;2022-09-30T10:15:01;100797.09;;;12.65;85.58
57056;BME280;42945;51.718;5.324;2022-09-30T10:17:31;100799.34;;;12.71;84.66
57056;BME280;42945;51.718;5.324;2022-09-30T10:22:29;100705.94;;;11.96;84.38
57056;BME280;42945;51.718;5.324;2022-09-30T10:27:45;100764.47;;;13.02;83.69
57056;BME280;42945;51.718;5.324;2022-09-30T10:30:11;100824.13;;;12.99;83.04
57056;BME280;42945;51.718;5.324;2022-09-30T10:32:36;100778.00;;;13.11;82.18
57056;BME280;42945;51.718;5.324;2022-09-30T10:35:15;100664.19;;;12.76;83.47
57056;BME280;42945;51.718;5.324;2022-09-30T10:37:52;100718.03;;;13.44;81.37
57056;BME280;42945;51.718;5.324;2022-09-30T10:40:17;100769.69;;;13.54;79.71
57056;BME280;42945;51.718;5.324;2022-09-30T10:42:44;100780.22;;;13.69;79.57
57056;BME280;42945;51.718;5.324;2022-09-30T10:45:28;100769.22;;;13.73;78.98
57056;BME280;42945;51.718;5.324;2022-09-30T10:47:56;100788.81;;;13.85;79.61
57056;BME280;42945;51.718;5.324;2022-09-30T10:50:26;100763.72;;;13.51;78.17
57056;BME280;42945;51.718;5.324;2022-09-30T10:52:55;100789.41;;;13.52;80.06
57056;BME280;42945;51.718;5.324;2022-09-30T10:57:50;100768.28;;;13.49;77.50
57056;BME280;42945;51.718;5.324;2022-09-30T11:02:49;100754.16;;;13.85;76.04
57056;BME280;42945;51.718;5.324;2022-09-30T11:05:23;100804.41;;;13.53;77.06
57056;BME280;42945;51.718;5.324;2022-09-30T11:07:52;100786.66;;;13.53;77.97
57056;BME280;42945;51.718;5.324;2022-09-30T11:15:28;100787.34;;;14.05;74.88
57056;BME280;42945;51.718;5.324;2022-09-30T11:17:57;100798.53;;;13.86;74.67
57056;BME280;42945;51.718;5.324;2022-09-30T11:20:24;100624.31;;;13.00;75.65
57056;BME280;42945;51.718;5.324;2022-09-30T11:23:17;100775.19;;;14.01;74.85
57056;BME280;42945;51.718;5.324;2022-09-30T11:25:46;100708.53;;;14.01;73.07
57056;BME280;42945;51.718;5.324;2022-09-30T11:31:03;100643.94;;;13.73;72.57
57056;BME280;42945;51.718;5.324;2022-09-30T11:33:42;100744.13;;;14.72;71.27
57056;BME280;42945;51.718;5.324;2022-09-30T11:53:41;100708.75;;;15.15;69.78
57056;BME280;42945;51.718;5.324;2022-09-30T11:58:37;100630.63;;;14.55;70.22
57056;BME280;42945;51.718;5.324;2022-09-30T12:03:53;100598.19;;;14.26;68.55
57056;BME280;42945;51.718;5.324;2022-09-30T12:09:21;100802.38;;;14.79;71.90
57056;BME280;42945;51.718;5.324;2022-09-30T12:11:51;100720.53;;;15.13;69.49
57056;BME280;42945;51.718;5.324;2022-09-30T12:14:19;100668.66;;;15.04;70.95
57056;BME280;42945;51.718;5.324;2022-09-30T12:16:47;100725.25;;;15.09;70.06
57056;BME280;42945;51.718;5.324;2022-09-30T12:19:20;100632.72;;;14.63;67.78
57056;BME280;42945;51.718;5.324;2022-09-30T12:24:19;100727.31;;;15.17;68.91
57056;BME280;42945;51.718;5.324;2022-09-30T12:26:47;100705.47;;;15.01;68.38
57056;BME280;42945;51.718;5.324;2022-09-30T12:29:48;100829.47;;;16.11;67.49
57056;BME280;42945;51.718;5.324;2022-09-30T12:35:24;100662.34;;;15.94;65.13
57056;BME280;42945;51.718;5.324;2022-09-30T12:37:58;100655.19;;;15.72;65.24
57056;BME280;42945;51.718;5.324;2022-09-30T12:48:16;100604.84;;;14.79;67.25
57056;BME280;42945;51.718;5.324;2022-09-30T12:50:48;100702.50;;;15.60;67.59
57056;BME280;42945;51.718;5.324;2022-09-30T12:53:21;100577.25;;;15.55;65.63
57056;BME280;42945;51.718;5.324;2022-09-30T12:55:49;100692.41;;;16.40;65.68
57056;BME280;42945;51.718;5.324;2022-09-30T12:58:18;100716.56;;;15.96;64.87
57056;BME280;42945;51.718;5.324;2022-09-30T13:00:56;100683.06;;;15.58;65.80
57056;BME280;42945;51.718;5.324;2022-09-30T13:03:22;100615.66;;;14.30;67.54
57056;BME280;42945;51.718;5.324;2022-09-30T13:05:55;100604.19;;;14.52;67.31
57056;BME280;42945;51.718;5.324;2022-09-30T13:08:22;100732.78;;;15.49;67.21
57056;BME280;42945;51.718;5.324;2022-09-30T13:10:57;100659.22;;;15.66;67.83
57056;BME280;42945;51.718;5.324;2022-09-30T13:13:27;100552.81;;;15.28;67.55
57056;BME280;42945;51.718;5.324;2022-09-30T13:15:54;100641.72;;;15.30;67.67
57056;BME280;42945;51.718;5.324;2022-09-30T13:20:53;100679.81;;;14.64;68.41
57056;BME280;42945;51.718;5.324;2022-09-30T13:24:02;100679.22;;;14.72;68.77
57056;BME280;42945;51.718;5.324;2022-09-30T13:31:24;100613.56;;;14.81;68.44
57056;BME280;42945;51.718;5.324;2022-09-30T13:41:37;100652.63;;;15.04;66.86
57056;BME280;42945;51.718;5.324;2022-09-30T13:44:18;100560.63;;;14.52;67.99
57056;BME280;42945;51.718;5.324;2022-09-30T13:46:46;100598.03;;;14.97;66.98
57056;BME280;42945;51.718;5.324;2022-09-30T13:49:18;100656.41;;;14.90;68.17
57056;BME280;42945;51.718;5.324;2022-09-30T13:51:45;100633.72;;;14.85;67.72
57056;BME280;42945;51.718;5.324;2022-09-30T13:54:25;100561.53;;;14.64;67.43
57056;BME280;42945;51.718;5.324;2022-09-30T13:56:52;100643.03;;;15.35;68.46
57056;BME280;42945;51.718;5.324;2022-09-30T14:12:22;100674.47;;;14.87;66.55
57056;BME280;42945;51.718;5.324;2022-09-30T14:22:28;100640.66;;;14.87;68.37
57056;BME280;42945;51.718;5.324;2022-09-30T14:24:54;100632.00;;;14.72;67.73
57056;BME280;42945;51.718;5.324;2022-09-30T14:32:45;100601.22;;;14.80;66.67
57056;BME280;42945;51.718;5.324;2022-09-30T14:35:13;100610.28;;;14.88;66.53
57056;BME280;42945;51.718;5.324;2022-09-30T14:37:41;100497.19;;;14.44;65.64
57056;BME280;42945;51.718;5.324;2022-09-30T14:40:10;100590.25;;;15.05;67.45
57056;BME280;42945;51.718;5.324;2022-09-30T14:42:39;100632.00;;;15.18;65.66
57056;BME280;42945;51.718;5.324;2022-09-30T14:45:05;100589.41;;;15.16;65.95
57056;BME280;42945;51.718;5.324;2022-09-30T14:47:39;100489.06;;;14.34;65.46
57056;BME280;42945;51.718;5.324;2022-09-30T14:50:43;100611.13;;;15.11;64.48
57056;BME280;42945;51.718;5.324;2022-09-30T14:53:00;100488.59;;;14.41;64.88
57056;BME280;42945;51.718;5.324;2022-09-30T14:55:34;100463.88;;;14.38;64.02
57056;BME280;42945;51.718;5.324;2022-09-30T14:58:22;100474.28;;;14.42;64.50
57056;BME280;42945;51.718;5.324;2022-09-30T15:00:56;100563.41;;;15.18;64.05
57056;BME280;42945;51.718;5.324;2022-09-30T15:03:23;100594.84;;;15.26;63.51
57056;BME280;42945;51.718;5.324;2022-09-30T15:05:48;100497.22;;;14.78;63.42
57056;BME280;42945;51.718;5.324;2022-09-30T15:08:17;100624.22;;;15.81;62.96
57056;BME280;42945;51.718;5.324;2022-09-30T15:10:47;100611.25;;;15.65;63.03
57056;BME280;42945;51.718;5.324;2022-09-30T15:13:13;100463.56;;;14.87;62.76
57056;BME280;42945;51.718;5.324;2022-09-30T15:15:41;100554.47;;;15.40;62.32
57056;BME280;42945;51.718;5.324;2022-09-30T15:20:51;100601.63;;;15.41;63.67
57056;BME280;42945;51.718;5.324;2022-09-30T15:23:20;100490.28;;;14.53;68.06
57056;BME280;42945;51.718;5.324;2022-09-30T15:25:47;100605.06;;;14.87;64.03
57056;BME280;42945;51.718;5.324;2022-09-30T15:28:12;100649.47;;;15.22;63.10
57056;BME280;42945;51.718;5.324;2022-09-30T15:30:38;100502.44;;;14.57;63.23
57056;BME280;42945;51.718;5.324;2022-09-30T15:33:04;100489.19;;;14.44;62.55
57056;BME280;42945;51.718;5.324;2022-09-30T15:35:30;100630.31;;;15.16;62.35
57056;BME280;42945;51.718;5.324;2022-09-30T15:38:07;100519.03;;;14.49;62.16
57056;BME280;42945;51.718;5.324;2022-09-30T15:40:33;100461.81;;;14.08;61.89
57056;BME280;42945;51.718;5.324;2022-09-30T15:43:12;100575.34;;;14.57;63.31
57056;BME280;42945;51.718;5.324;2022-09-30T15:45:42;100596.72;;;14.80;64.73
57056;BME280;42945;51.718;5.324;2022-09-30T15:50:45;100487.09;;;13.91;65.14
57056;BME280;42945;51.718;5.324;2022-09-30T15:53:16;100492.84;;;13.63;65.95
57056;BME280;42945;51.718;5.324;2022-09-30T15:55:45;100507.38;;;13.58;64.78
57056;BME280;42945;51.718;5.324;2022-09-30T16:01:20;100494.56;;;14.67;63.28
57056;BME280;42945;51.718;5.324;2022-09-30T16:06:29;100383.56;;;14.64;59.93
57056;BME280;42945;51.718;5.324;2022-09-30T16:09:05;100641.66;;;16.59;60.13
57056;BME280;42945;51.718;5.324;2022-09-30T16:11:36;100619.75;;;15.04;63.30
57056;BME280;42945;51.718;5.324;2022-09-30T16:14:06;100635.97;;;14.55;64.35